createdAt,value
2023-04-14T00:03:06.269Z,5.00
2023-04-14T00:09:10.241Z,3.40
2023-04-14T00:15:13.815Z,5.10
2023-04-14T00:21:18.686Z,3.10
2023-04-14T00:27:22.145Z,3.33
2023-04-14T00:33:25.541Z,3.28
2023-04-14T00:39:30.384Z,4.63
2023-04-14T00:45:34.373Z,5.93
2023-04-14T00:51:38.257Z,3.13
2023-04-14T00:57:43.322Z,2.55
2023-04-14T01:03:46.968Z,2.38
2023-04-14T01:09:51.073Z,5.80
2023-04-14T01:15:59.650Z,3.00
2023-04-14T01:22:06.322Z,3.15
2023-04-14T01:28:15.937Z,5.93
2023-04-14T01:34:22.392Z,2.58
2023-04-14T01:40:27.265Z,3.15
2023-04-14T01:46:30.947Z,5.95
2023-04-14T01:52:36.776Z,2.50
2023-04-14T01:58:41.343Z,2.97
2023-04-14T02:04:45.257Z,3.50
2023-04-14T02:10:50.850Z,3.92
2023-04-14T02:16:57.312Z,5.55
2023-04-14T02:23:00.923Z,5.68
2023-04-14T02:29:09.948Z,5.13
2023-04-14T02:35:16.868Z,5.00
2023-04-14T02:41:24.494Z,3.28
2023-04-14T02:47:31.511Z,3.72
2023-04-14T02:53:35.319Z,6.38
2023-04-14T02:59:39.732Z,3.15
2023-04-14T03:05:46.411Z,3.53
2023-04-14T03:11:51.189Z,8.40
2023-04-14T03:17:57.418Z,6.43
2023-04-14T03:24:02.494Z,4.10
2023-04-14T03:30:07.992Z,4.32
2023-04-14T03:36:12.767Z,3.65
2023-04-14T03:42:17.852Z,6.80
2023-04-14T03:48:22.190Z,5.95
2023-04-14T03:54:27.935Z,3.72
2023-04-14T04:00:32.888Z,6.13
2023-04-14T04:06:37.197Z,5.05
2023-04-14T04:12:40.993Z,3.45
2023-04-14T04:18:47.172Z,4.80
2023-04-14T04:24:51.302Z,4.45
2023-04-14T04:30:56.534Z,5.93
2023-04-14T04:37:02.298Z,6.13
2023-04-14T04:43:06.088Z,7.60
2023-04-14T04:49:09.630Z,5.72
2023-04-14T04:55:14.404Z,5.28
2023-04-14T05:01:19.537Z,3.40
2023-04-14T05:07:25.666Z,4.55
2023-04-14T05:13:30.453Z,3.60
2023-04-14T05:19:33.885Z,3.95
2023-04-14T05:25:37.277Z,4.93
2023-04-14T05:31:42.125Z,6.97
2023-04-14T05:37:45.594Z,7.45
2023-04-14T05:43:49.075Z,6.38
2023-04-14T05:49:54.077Z,6.57
2023-04-14T05:55:57.933Z,4.47
2023-04-14T06:02:04.924Z,6.95
2023-04-14T06:08:10.034Z,7.32
2023-04-14T06:14:13.480Z,7.63
2023-04-14T06:20:18.665Z,5.85
2023-04-14T06:26:23.570Z,6.63
2023-04-14T06:32:27.418Z,4.60
2023-04-14T06:38:31.297Z,5.75
2023-04-14T06:44:36.100Z,5.68
2023-04-14T06:50:39.514Z,6.05
2023-04-14T06:56:42.906Z,5.13
2023-04-14T07:02:47.766Z,5.50
2023-04-14T07:08:51.495Z,4.63
2023-04-14T07:14:55.517Z,9.63
2023-04-14T07:21:01.301Z,4.80
2023-04-14T07:27:07.264Z,8.02
2023-04-14T07:33:10.892Z,8.35
2023-04-14T07:39:15.752Z,5.43
2023-04-14T07:45:19.433Z,7.68
2023-04-14T07:51:23.084Z,9.70
2023-04-14T07:57:27.863Z,7.22
2023-04-14T08:03:31.811Z,7.60
2023-04-14T08:09:35.754Z,6.75
2023-04-14T08:15:40.534Z,6.75
2023-04-14T08:21:44.192Z,5.70
2023-04-14T08:27:47.673Z,6.78
2023-04-14T08:33:53.014Z,5.28
2023-04-14T08:39:56.503Z,5.75
2023-04-14T08:46:00.140Z,5.97
2023-04-14T08:52:05.597Z,5.03
2023-04-14T08:58:10.593Z,5.63
2023-04-14T09:04:15.306Z,4.45
2023-04-14T09:10:21.146Z,6.22
2023-04-14T09:16:26.463Z,4.65
2023-04-14T09:22:29.947Z,4.28
2023-04-14T09:28:34.714Z,4.13
2023-04-14T09:34:38.119Z,3.80
2023-04-14T09:40:44.041Z,4.00
2023-04-14T09:46:59.253Z,4.05
2023-04-14T09:53:05.824Z,3.92
2023-04-14T09:59:10.764Z,2.88
2023-04-14T10:05:15.866Z,4.05
2023-04-14T10:11:20.171Z,4.05
2023-04-14T10:17:23.576Z,4.20
2023-04-14T10:23:28.925Z,5.15
2023-04-14T10:29:32.899Z,4.63
2023-04-14T10:35:39.469Z,1.67
2023-04-14T10:41:50.816Z,2.80
2023-04-14T10:47:54.355Z,3.67
2023-04-14T10:53:58.171Z,1.17
2023-04-14T11:00:02.970Z,1.73
2023-04-14T11:06:06.689Z,1.40
2023-04-14T11:12:24.581Z,1.30
2023-04-14T11:18:37.333Z,2.00
2023-04-14T11:24:41.122Z,1.20
2023-04-14T11:30:45.182Z,2.60
2023-04-14T11:36:51.689Z,1.00
2023-04-14T11:42:55.690Z,0.77
2023-04-14T11:48:59.762Z,1.95
2023-04-14T11:55:05.937Z,1.05
2023-04-14T12:01:14.302Z,0.75
2023-04-14T12:07:18.345Z,0.43
2023-04-14T12:13:23.447Z,0.40
2023-04-14T12:19:26.840Z,1.88
2023-04-14T12:25:33.922Z,1.98
2023-04-14T12:31:44.018Z,2.05
2023-04-14T12:37:50.983Z,0.38
2023-04-14T12:43:54.827Z,0.68
2023-04-14T12:50:00.411Z,1.20
2023-04-14T12:56:07.581Z,1.10
2023-04-14T13:02:11.096Z,0.60
2023-04-14T13:08:17.798Z,1.50
2023-04-14T13:14:21.997Z,1.98
2023-04-14T13:20:25.504Z,0.75
2023-04-14T13:26:30.304Z,2.80
2023-04-14T13:32:33.750Z,0.80
2023-04-14T13:38:37.234Z,0.82
2023-04-14T13:44:42.341Z,0.43
2023-04-14T13:50:45.860Z,0.40
2023-04-14T13:56:49.231Z,0.47
2023-04-14T14:02:54.316Z,0.57
2023-04-14T14:09:04.335Z,1.67
2023-04-14T14:15:10.054Z,2.38
2023-04-14T14:21:15.115Z,0.77
2023-04-14T14:27:18.602Z,0.60
2023-04-14T14:33:22.011Z,0.60
2023-04-14T14:39:26.816Z,1.20
2023-04-14T14:45:31.213Z,1.45
2023-04-14T14:51:36.199Z,3.55
2023-04-14T14:57:41.219Z,1.17
2023-04-14T15:03:44.778Z,2.60
2023-04-14T15:09:48.651Z,1.48
2023-04-14T15:15:53.472Z,1.98
2023-04-14T15:21:57.081Z,1.30
2023-04-14T15:28:00.507Z,1.80
2023-04-14T15:34:05.992Z,1.20
2023-04-14T15:40:10.770Z,1.20
2023-04-14T15:46:14.884Z,2.15
2023-04-14T15:52:19.822Z,1.30
2023-04-14T15:58:23.216Z,0.60
2023-04-14T16:04:26.910Z,1.33
2023-04-14T16:10:31.991Z,1.15
2023-04-14T16:16:35.517Z,0.75
2023-04-14T16:22:39.092Z,0.77
2023-04-14T16:28:43.908Z,0.80
2023-04-14T16:34:47.309Z,0.88
2023-04-14T16:40:57.435Z,2.05
2023-04-14T16:47:02.223Z,1.13
2023-04-14T16:53:05.669Z,0.95
2023-04-14T16:59:09.793Z,1.45
2023-04-14T17:05:16.125Z,1.10
2023-04-14T17:11:20.422Z,1.52
2023-04-14T17:17:24.300Z,2.63
2023-04-14T17:23:29.374Z,1.48
2023-04-14T17:29:33.113Z,2.42
2023-04-14T17:35:41.819Z,1.35
2023-04-14T17:41:47.932Z,4.13
2023-04-14T17:47:52.316Z,2.65
2023-04-14T17:53:56.711Z,1.40
2023-04-14T18:00:01.676Z,1.30
2023-04-14T18:06:05.787Z,2.90
2023-04-14T18:12:10.790Z,2.70
2023-04-14T18:18:15.966Z,2.28
2023-04-14T18:30:26.235Z,4.03
2023-04-14T18:36:32.555Z,1.85
2023-04-14T18:42:36.158Z,2.38
2023-04-14T18:48:41.065Z,1.95
2023-04-14T18:54:46.097Z,3.33
2023-04-14T19:00:51.475Z,3.63
2023-04-14T19:06:55.012Z,3.08
2023-04-14T19:12:59.805Z,1.83
2023-04-14T19:19:03.654Z,1.60
2023-04-14T19:25:08.675Z,1.83
2023-04-14T19:31:13.709Z,1.70
2023-04-14T19:37:17.480Z,1.60
2023-04-14T19:43:21.184Z,1.70
2023-04-14T19:49:26.297Z,2.42
2023-04-14T19:55:30.074Z,2.70
2023-04-14T20:01:33.738Z,3.83
2023-04-14T20:07:38.916Z,2.60
2023-04-14T20:13:42.671Z,2.50
2023-04-14T20:19:46.108Z,2.85
2023-04-14T20:25:51.189Z,2.78
2023-04-14T20:31:54.879Z,3.47
2023-04-14T20:37:58.514Z,3.40
2023-04-14T20:44:04.572Z,3.55
2023-04-14T20:50:08.706Z,3.15
2023-04-14T20:56:12.312Z,4.63
2023-04-14T21:02:17.125Z,2.75
2023-04-14T21:08:21.645Z,2.60
2023-04-14T21:15:40.283Z,2.60
2023-04-14T21:20:49.960Z,2.60
2023-04-14T21:26:53.920Z,2.63
2023-04-14T21:32:57.390Z,3.88
2023-04-14T21:39:02.491Z,2.53
2023-04-14T21:45:07.945Z,2.58
2023-04-14T21:51:11.464Z,3.47
2023-04-14T21:57:16.536Z,4.25
2023-04-14T22:03:20.139Z,3.25
2023-04-14T22:09:23.620Z,6.72
2023-04-14T22:15:29.505Z,3.97
2023-04-14T22:21:33.628Z,3.45
2023-04-14T22:27:37.647Z,4.63
2023-04-14T22:33:42.831Z,2.95
2023-04-14T22:39:46.480Z,4.78
2023-04-14T22:45:50.000Z,4.97
2023-04-14T22:51:54.781Z,5.68
2023-04-14T22:57:58.803Z,3.40
2023-04-14T23:04:02.466Z,3.65
2023-04-14T23:10:08.018Z,3.97
2023-04-14T23:16:11.853Z,3.40
2023-04-14T23:22:15.548Z,4.43
2023-04-14T23:28:20.550Z,4.13
2023-04-14T23:34:23.977Z,5.95
2023-04-14T23:40:27.370Z,4.43
2023-04-14T23:46:32.686Z,4.60
2023-04-14T23:52:36.696Z,5.00
2023-04-14T23:58:40.177Z,3.70
